sensor_id;sensor_type;location;lat;lon;timestamp;temperature;humidity
10133;DHT22;5106;50.926;7.080;2023-10-31T00:01:15;11.80;96.50
10133;DHT22;5106;50.926;7.080;2023-10-31T00:03:41;11.80;96.50
10133;DHT22;5106;50.926;7.080;2023-10-31T00:06:08;11.80;96.50
10133;DHT22;5106;50.926;7.080;2023-10-31T00:08:33;11.80;96.50
10133;DHT22;5106;50.926;7.080;2023-10-31T00:10:59;11.80;96.50
10133;DHT22;5106;50.926;7.080;2023-10-31T00:13:24;11.80;96.50
10133;DHT22;5106;50.926;7.080;2023-10-31T00:15:50;11.80;96.50
10133;DHT22;5106;50.926;7.080;2023-10-31T00:18:16;11.80;96.50
10133;DHT22;5106;50.926;7.080;2023-10-31T00:20:41;11.80;96.50
10133;DHT22;5106;50.926;7.080;2023-10-31T00:23:07;11.80;96.50
10133;DHT22;5106;50.926;7.080;2023-10-31T00:25:33;11.70;96.50
10133;DHT22;5106;50.926;7.080;2023-10-31T00:27:58;11.70;96.50
10133;DHT22;5106;50.926;7.080;2023-10-31T00:30:24;11.70;96.50
10133;DHT22;5106;50.926;7.080;2023-10-31T00:32:49;11.70;96.50
10133;DHT22;5106;50.926;7.080;2023-10-31T00:35:15;11.70;96.50
10133;DHT22;5106;50.926;7.080;2023-10-31T00:37:41;11.70;96.50
10133;DHT22;5106;50.926;7.080;2023-10-31T00:40:07;11.70;96.50
10133;DHT22;5106;50.926;7.080;2023-10-31T00:42:37;11.80;96.50
10133;DHT22;5106;50.926;7.080;2023-10-31T00:45:03;11.80;96.50
10133;DHT22;5106;50.926;7.080;2023-10-31T00:47:28;11.70;96.50
10133;DHT22;5106;50.926;7.080;2023-10-31T00:49:54;11.80;96.50
10133;DHT22;5106;50.926;7.080;2023-10-31T00:52:19;11.70;96.50
10133;DHT22;5106;50.926;7.080;2023-10-31T00:54:45;11.70;96.50
10133;DHT22;5106;50.926;7.080;2023-10-31T00:57:10;11.70;96.50
10133;DHT22;5106;50.926;7.080;2023-10-31T00:59:36;11.70;96.50
10133;DHT22;5106;50.926;7.080;2023-10-31T01:02:02;11.60;96.50
10133;DHT22;5106;50.926;7.080;2023-10-31T01:04:28;11.60;96.50
10133;DHT22;5106;50.926;7.080;2023-10-31T01:06:54;11.60;96.50
10133;DHT22;5106;50.926;7.080;2023-10-31T01:09:19;11.50;96.50
10133;DHT22;5106;50.926;7.080;2023-10-31T01:11:45;11.50;96.50
10133;DHT22;5106;50.926;7.080;2023-10-31T01:14:10;11.50;96.50
10133;DHT22;5106;50.926;7.080;2023-10-31T01:16:36;11.40;96.50
10133;DHT22;5106;50.926;7.080;2023-10-31T01:19:01;11.40;96.50
10133;DHT22;5106;50.926;7.080;2023-10-31T01:21:27;11.40;96.50
10133;DHT22;5106;50.926;7.080;2023-10-31T01:23:52;11.40;96.50
10133;DHT22;5106;50.926;7.080;2023-10-31T01:26:18;11.40;96.50
10133;DHT22;5106;50.926;7.080;2023-10-31T01:28:44;11.30;96.50
10133;DHT22;5106;50.926;7.080;2023-10-31T01:31:09;11.30;96.50
10133;DHT22;5106;50.926;7.080;2023-10-31T01:33:35;11.30;96.50
10133;DHT22;5106;50.926;7.080;2023-10-31T01:36:01;11.20;96.50
10133;DHT22;5106;50.926;7.080;2023-10-31T01:38:26;11.20;96.50
10133;DHT22;5106;50.926;7.080;2023-10-31T01:40:52;11.20;96.50
10133;DHT22;5106;50.926;7.080;2023-10-31T01:43:31;11.10;96.50
10133;DHT22;5106;50.926;7.080;2023-10-31T01:45:57;11.00;96.50
10133;DHT22;5106;50.926;7.080;2023-10-31T01:48:24;11.00;96.50
10133;DHT22;5106;50.926;7.080;2023-10-31T01:50:51;11.00;96.50
10133;DHT22;5106;50.926;7.080;2023-10-31T01:56:35;10.90;96.50
10133;DHT22;5106;50.926;7.080;2023-10-31T01:59:01;10.90;96.50
10133;DHT22;5106;50.926;7.080;2023-10-31T02:01:27;10.90;96.50
10133;DHT22;5106;50.926;7.080;2023-10-31T02:03:53;10.90;96.50
10133;DHT22;5106;50.926;7.080;2023-10-31T02:06:19;10.90;96.50
10133;DHT22;5106;50.926;7.080;2023-10-31T02:08:47;10.90;96.50
10133;DHT22;5106;50.926;7.080;2023-10-31T02:11:12;10.90;96.50
10133;DHT22;5106;50.926;7.080;2023-10-31T02:13:38;10.90;96.50
10133;DHT22;5106;50.926;7.080;2023-10-31T02:16:04;10.90;96.50
10133;DHT22;5106;50.926;7.080;2023-10-31T02:18:29;10.90;96.50
10133;DHT22;5106;50.926;7.080;2023-10-31T02:20:55;10.90;96.50
10133;DHT22;5106;50.926;7.080;2023-10-31T02:23:21;10.90;96.50
10133;DHT22;5106;50.926;7.080;2023-10-31T02:25:46;10.90;96.50
10133;DHT22;5106;50.926;7.080;2023-10-31T02:28:12;10.90;96.50
10133;DHT22;5106;50.926;7.080;2023-10-31T02:30:37;10.90;96.50
10133;DHT22;5106;50.926;7.080;2023-10-31T02:33:03;10.90;96.50
10133;DHT22;5106;50.926;7.080;2023-10-31T02:35:28;10.90;96.50
10133;DHT22;5106;50.926;7.080;2023-10-31T02:37:54;10.90;96.50
10133;DHT22;5106;50.926;7.080;2023-10-31T02:40:20;10.90;96.50
10133;DHT22;5106;50.926;7.080;2023-10-31T02:42:45;10.90;96.50
10133;DHT22;5106;50.926;7.080;2023-10-31T02:45:11;10.90;96.50
10133;DHT22;5106;50.926;7.080;2023-10-31T02:47:37;10.90;96.50
10133;DHT22;5106;50.926;7.080;2023-10-31T02:50:03;10.90;96.50
10133;DHT22;5106;50.926;7.080;2023-10-31T02:52:28;10.90;96.50
10133;DHT22;5106;50.926;7.080;2023-10-31T02:54:54;10.90;96.50
10133;DHT22;5106;50.926;7.080;2023-10-31T02:57:20;10.80;96.50
10133;DHT22;5106;50.926;7.080;2023-10-31T02:59:45;10.80;96.50
10133;DHT22;5106;50.926;7.080;2023-10-31T03:02:11;10.80;96.50
10133;DHT22;5106;50.926;7.080;2023-10-31T03:04:37;10.80;96.50
10133;DHT22;5106;50.926;7.080;2023-10-31T03:07:03;10.80;96.50
10133;DHT22;5106;50.926;7.080;2023-10-31T03:09:28;10.80;96.50
10133;DHT22;5106;50.926;7.080;2023-10-31T03:11:54;10.80;96.50
10133;DHT22;5106;50.926;7.080;2023-10-31T03:14:19;10.80;96.50
10133;DHT22;5106;50.926;7.080;2023-10-31T03:16:45;10.80;96.50
10133;DHT22;5106;50.926;7.080;2023-10-31T03:19:11;10.80;96.50
10133;DHT22;5106;50.926;7.080;2023-10-31T03:21:37;10.80;96.50
10133;DHT22;5106;50.926;7.080;2023-10-31T03:24:02;10.80;96.50
10133;DHT22;5106;50.926;7.080;2023-10-31T03:26:28;10.80;96.50
10133;DHT22;5106;50.926;7.080;2023-10-31T03:28:53;10.80;96.50
10133;DHT22;5106;50.926;7.080;2023-10-31T03:31:23;10.80;96.50
10133;DHT22;5106;50.926;7.080;2023-10-31T03:33:49;10.80;96.50
10133;DHT22;5106;50.926;7.080;2023-10-31T03:36:15;10.80;96.50
10133;DHT22;5106;50.926;7.080;2023-10-31T03:38:41;10.80;96.50
10133;DHT22;5106;50.926;7.080;2023-10-31T03:41:07;10.80;96.50
10133;DHT22;5106;50.926;7.080;2023-10-31T03:43:32;10.80;96.50
10133;DHT22;5106;50.926;7.080;2023-10-31T03:46:07;10.70;96.50
10133;DHT22;5106;50.926;7.080;2023-10-31T03:48:33;10.80;96.50
10133;DHT22;5106;50.926;7.080;2023-10-31T03:50:58;10.80;96.50
10133;DHT22;5106;50.926;7.080;2023-10-31T03:53:24;10.80;96.50
10133;DHT22;5106;50.926;7.080;2023-10-31T03:55:50;10.80;96.50
10133;DHT22;5106;50.926;7.080;2023-10-31T03:58:15;10.80;96.50
10133;DHT22;5106;50.926;7.080;2023-10-31T04:00:41;10.80;96.50
10133;DHT22;5106;50.926;7.080;2023-10-31T04:03:07;10.80;96.50
10133;DHT22;5106;50.926;7.080;2023-10-31T04:05:33;10.80;96.50
10133;DHT22;5106;50.926;7.080;2023-10-31T04:07:59;10.90;96.50
10133;DHT22;5106;50.926;7.080;2023-10-31T04:10:25;10.90;96.50
10133;DHT22;5106;50.926;7.080;2023-10-31T04:12:50;10.90;96.50
10133;DHT22;5106;50.926;7.080;2023-10-31T04:15:16;10.80;96.50
10133;DHT22;5106;50.926;7.080;2023-10-31T04:17:42;10.90;96.50
10133;DHT22;5106;50.926;7.080;2023-10-31T04:20:07;10.90;96.50
10133;DHT22;5106;50.926;7.080;2023-10-31T04:22:33;10.90;96.50
10133;DHT22;5106;50.926;7.080;2023-10-31T04:24:59;10.90;96.50
10133;DHT22;5106;50.926;7.080;2023-10-31T04:27:24;10.90;96.50
10133;DHT22;5106;50.926;7.080;2023-10-31T04:29:50;10.90;96.50
10133;DHT22;5106;50.926;7.080;2023-10-31T04:32:15;10.90;96.50
10133;DHT22;5106;50.926;7.080;2023-10-31T04:34:41;10.90;96.50
10133;DHT22;5106;50.926;7.080;2023-10-31T04:37:06;10.90;96.50
10133;DHT22;5106;50.926;7.080;2023-10-31T04:39:32;10.90;96.50
10133;DHT22;5106;50.926;7.080;2023-10-31T04:41:58;10.90;96.50
10133;DHT22;5106;50.926;7.080;2023-10-31T04:44:23;10.90;96.50
10133;DHT22;5106;50.926;7.080;2023-10-31T04:46:49;11.00;96.50
10133;DHT22;5106;50.926;7.080;2023-10-31T04:49:14;11.00;96.50
10133;DHT22;5106;50.926;7.080;2023-10-31T04:51:43;11.00;96.50
10133;DHT22;5106;50.926;7.080;2023-10-31T04:54:09;11.00;96.50
10133;DHT22;5106;50.926;7.080;2023-10-31T04:56:34;11.00;96.50
10133;DHT22;5106;50.926;7.080;2023-10-31T04:59:00;11.00;96.50
10133;DHT22;5106;50.926;7.080;2023-10-31T05:01:25;11.00;96.50
10133;DHT22;5106;50.926;7.080;2023-10-31T05:03:51;10.90;96.50
10133;DHT22;5106;50.926;7.080;2023-10-31T05:06:22;10.90;96.50
10133;DHT22;5106;50.926;7.080;2023-10-31T05:08:48;10.90;96.50
10133;DHT22;5106;50.926;7.080;2023-10-31T05:11:16;10.90;96.50
10133;DHT22;5106;50.926;7.080;2023-10-31T05:13:41;10.90;96.50
10133;DHT22;5106;50.926;7.080;2023-10-31T05:16:07;10.90;96.50
10133;DHT22;5106;50.926;7.080;2023-10-31T05:18:33;11.00;96.50
10133;DHT22;5106;50.926;7.080;2023-10-31T05:20:58;10.90;96.50
10133;DHT22;5106;50.926;7.080;2023-10-31T05:23:24;11.00;96.50
10133;DHT22;5106;50.926;7.080;2023-10-31T05:25:50;11.00;96.50
10133;DHT22;5106;50.926;7.080;2023-10-31T05:28:15;11.00;96.50
10133;DHT22;5106;50.926;7.080;2023-10-31T05:30:41;11.00;96.50
10133;DHT22;5106;50.926;7.080;2023-10-31T05:33:06;11.00;96.50
10133;DHT22;5106;50.926;7.080;2023-10-31T05:35:33;11.00;96.50
10133;DHT22;5106;50.926;7.080;2023-10-31T05:37:59;11.00;96.50
10133;DHT22;5106;50.926;7.080;2023-10-31T05:40:24;11.00;96.50
10133;DHT22;5106;50.926;7.080;2023-10-31T05:42:51;11.10;96.50
10133;DHT22;5106;50.926;7.080;2023-10-31T05:45:17;11.10;96.50
10133;DHT22;5106;50.926;7.080;2023-10-31T05:48:16;11.20;96.50
10133;DHT22;5106;50.926;7.080;2023-10-31T05:50:42;11.10;96.50
10133;DHT22;5106;50.926;7.080;2023-10-31T05:53:08;11.20;96.50
10133;DHT22;5106;50.926;7.080;2023-10-31T05:55:33;11.20;96.50
10133;DHT22;5106;50.926;7.080;2023-10-31T05:58:19;11.20;96.50
10133;DHT22;5106;50.926;7.080;2023-10-31T06:00:44;11.20;96.50
10133;DHT22;5106;50.926;7.080;2023-10-31T06:03:10;11.20;96.50
10133;DHT22;5106;50.926;7.080;2023-10-31T06:05:35;11.20;96.50
10133;DHT22;5106;50.926;7.080;2023-10-31T06:08:01;11.20;96.50
10133;DHT22;5106;50.926;7.080;2023-10-31T06:10:26;11.20;96.50
10133;DHT22;5106;50.926;7.080;2023-10-31T06:12:52;11.20;96.50
10133;DHT22;5106;50.926;7.080;2023-10-31T06:15:18;11.20;96.50
10133;DHT22;5106;50.926;7.080;2023-10-31T06:17:43;11.20;96.50
10133;DHT22;5106;50.926;7.080;2023-10-31T06:20:09;11.20;96.50
10133;DHT22;5106;50.926;7.080;2023-10-31T06:22:35;11.20;96.50
10133;DHT22;5106;50.926;7.080;2023-10-31T06:25:01;11.20;96.50
10133;DHT22;5106;50.926;7.080;2023-10-31T06:27:27;11.20;96.50
10133;DHT22;5106;50.926;7.080;2023-10-31T06:29:53;11.20;96.50
10133;DHT22;5106;50.926;7.080;2023-10-31T06:32:18;11.20;96.50
10133;DHT22;5106;50.926;7.080;2023-10-31T06:34:44;11.20;96.50
10133;DHT22;5106;50.926;7.080;2023-10-31T06:37:09;11.20;96.50
10133;DHT22;5106;50.926;7.080;2023-10-31T06:39:35;11.20;96.50
10133;DHT22;5106;50.926;7.080;2023-10-31T06:42:00;11.20;96.50
10133;DHT22;5106;50.926;7.080;2023-10-31T06:44:26;11.20;96.50
10133;DHT22;5106;50.926;7.080;2023-10-31T06:46:52;11.20;96.50
10133;DHT22;5106;50.926;7.080;2023-10-31T06:49:18;11.10;96.50
10133;DHT22;5106;50.926;7.080;2023-10-31T06:51:44;11.20;96.50
10133;DHT22;5106;50.926;7.080;2023-10-31T06:54:10;11.20;96.50
10133;DHT22;5106;50.926;7.080;2023-10-31T06:56:36;11.20;96.50
10133;DHT22;5106;50.926;7.080;2023-10-31T06:59:01;11.20;96.50
10133;DHT22;5106;50.926;7.080;2023-10-31T07:01:27;11.10;96.50
10133;DHT22;5106;50.926;7.080;2023-10-31T07:03:52;11.10;96.50
10133;DHT22;5106;50.926;7.080;2023-10-31T07:06:18;11.10;96.50
10133;DHT22;5106;50.926;7.080;2023-10-31T07:08:43;11.10;96.50
10133;DHT22;5106;50.926;7.080;2023-10-31T07:11:09;11.10;96.50
10133;DHT22;5106;50.926;7.080;2023-10-31T07:13:36;11.10;96.50
10133;DHT22;5106;50.926;7.080;2023-10-31T07:16:02;11.10;96.50
10133;DHT22;5106;50.926;7.080;2023-10-31T07:18:27;11.20;96.50
10133;DHT22;5106;50.926;7.080;2023-10-31T07:20:53;11.20;96.50
10133;DHT22;5106;50.926;7.080;2023-10-31T07:23:19;11.10;96.50
10133;DHT22;5106;50.926;7.080;2023-10-31T07:25:44;11.10;96.50
10133;DHT22;5106;50.926;7.080;2023-10-31T07:28:10;11.10;96.50
10133;DHT22;5106;50.926;7.080;2023-10-31T07:30:36;11.10;96.50
10133;DHT22;5106;50.926;7.080;2023-10-31T07:33:02;11.20;96.50
10133;DHT22;5106;50.926;7.080;2023-10-31T07:35:28;11.10;96.50
10133;DHT22;5106;50.926;7.080;2023-10-31T07:37:53;11.20;96.50
10133;DHT22;5106;50.926;7.080;2023-10-31T07:40:19;11.20;96.50
10133;DHT22;5106;50.926;7.080;2023-10-31T07:42:45;11.20;96.50
10133;DHT22;5106;50.926;7.080;2023-10-31T07:45:10;11.20;96.50
10133;DHT22;5106;50.926;7.080;2023-10-31T07:47:36;11.20;96.50
10133;DHT22;5106;50.926;7.080;2023-10-31T07:50:02;11.20;96.50
10133;DHT22;5106;50.926;7.080;2023-10-31T07:52:28;11.20;96.50
10133;DHT22;5106;50.926;7.080;2023-10-31T07:54:53;11.20;96.50
10133;DHT22;5106;50.926;7.080;2023-10-31T07:57:19;11.20;96.50
10133;DHT22;5106;50.926;7.080;2023-10-31T07:59:45;11.20;96.50
10133;DHT22;5106;50.926;7.080;2023-10-31T08:02:10;11.20;96.50
10133;DHT22;5106;50.926;7.080;2023-10-31T08:04:36;11.20;96.50
10133;DHT22;5106;50.926;7.080;2023-10-31T08:07:02;11.30;96.50
10133;DHT22;5106;50.926;7.080;2023-10-31T08:09:27;11.30;96.50
10133;DHT22;5106;50.926;7.080;2023-10-31T08:11:53;11.30;96.50
10133;DHT22;5106;50.926;7.080;2023-10-31T08:14:18;11.30;96.50
10133;DHT22;5106;50.926;7.080;2023-10-31T08:16:44;11.30;96.50
10133;DHT22;5106;50.926;7.080;2023-10-31T08:19:10;11.40;96.50
10133;DHT22;5106;50.926;7.080;2023-10-31T08:21:35;11.40;96.50
10133;DHT22;5106;50.926;7.080;2023-10-31T08:24:04;11.40;96.50
10133;DHT22;5106;50.926;7.080;2023-10-31T08:26:31;11.40;96.50
10133;DHT22;5106;50.926;7.080;2023-10-31T08:28:57;11.40;96.50
10133;DHT22;5106;50.926;7.080;2023-10-31T08:31:23;11.40;96.50
10133;DHT22;5106;50.926;7.080;2023-10-31T08:33:49;11.40;96.50
10133;DHT22;5106;50.926;7.080;2023-10-31T08:36:14;11.40;96.50
10133;DHT22;5106;50.926;7.080;2023-10-31T08:38:40;11.50;96.50
10133;DHT22;5106;50.926;7.080;2023-10-31T08:41:06;11.50;96.50
10133;DHT22;5106;50.926;7.080;2023-10-31T08:43:31;11.50;96.50
10133;DHT22;5106;50.926;7.080;2023-10-31T08:45:57;11.60;96.50
10133;DHT22;5106;50.926;7.080;2023-10-31T08:48:23;11.60;96.50
10133;DHT22;5106;50.926;7.080;2023-10-31T08:50:49;11.70;96.50
10133;DHT22;5106;50.926;7.080;2023-10-31T08:53:14;11.70;96.50
10133;DHT22;5106;50.926;7.080;2023-10-31T08:55:41;11.70;96.50
10133;DHT22;5106;50.926;7.080;2023-10-31T08:58:13;11.80;96.50
10133;DHT22;5106;50.926;7.080;2023-10-31T09:00:39;11.80;96.50
10133;DHT22;5106;50.926;7.080;2023-10-31T09:03:06;11.80;96.50
10133;DHT22;5106;50.926;7.080;2023-10-31T09:05:33;11.80;96.50
10133;DHT22;5106;50.926;7.080;2023-10-31T09:07:58;11.80;96.50
10133;DHT22;5106;50.926;7.080;2023-10-31T09:10:24;11.80;96.50
10133;DHT22;5106;50.926;7.080;2023-10-31T09:12:49;11.90;96.50
10133;DHT22;5106;50.926;7.080;2023-10-31T09:15:15;11.90;96.50
10133;DHT22;5106;50.926;7.080;2023-10-31T09:17:42;11.90;96.50
10133;DHT22;5106;50.926;7.080;2023-10-31T09:20:08;12.00;96.50
10133;DHT22;5106;50.926;7.080;2023-10-31T09:22:33;12.00;96.50
10133;DHT22;5106;50.926;7.080;2023-10-31T09:24:59;12.00;96.50
10133;DHT22;5106;50.926;7.080;2023-10-31T09:27:25;12.00;96.50
10133;DHT22;5106;50.926;7.080;2023-10-31T09:29:50;12.00;96.50
10133;DHT22;5106;50.926;7.080;2023-10-31T09:32:17;12.00;96.50
10133;DHT22;5106;50.926;7.080;2023-10-31T09:34:43;12.00;96.50
10133;DHT22;5106;50.926;7.080;2023-10-31T09:37:08;12.00;96.50
10133;DHT22;5106;50.926;7.080;2023-10-31T09:39:34;12.00;96.50
10133;DHT22;5106;50.926;7.080;2023-10-31T09:42:00;12.00;96.50
10133;DHT22;5106;50.926;7.080;2023-10-31T09:44:25;12.00;96.50
10133;DHT22;5106;50.926;7.080;2023-10-31T09:46:54;12.10;96.50
10133;DHT22;5106;50.926;7.080;2023-10-31T09:49:20;12.10;96.50
10133;DHT22;5106;50.926;7.080;2023-10-31T09:51:47;12.20;96.50
10133;DHT22;5106;50.926;7.080;2023-10-31T09:54:16;12.20;96.50
10133;DHT22;5106;50.926;7.080;2023-10-31T09:56:42;12.20;96.50
10133;DHT22;5106;50.926;7.080;2023-10-31T09:59:09;12.30;96.50
10133;DHT22;5106;50.926;7.080;2023-10-31T10:01:35;12.30;96.50
10133;DHT22;5106;50.926;7.080;2023-10-31T10:04:01;12.30;96.50
10133;DHT22;5106;50.926;7.080;2023-10-31T10:06:27;12.30;96.50
10133;DHT22;5106;50.926;7.080;2023-10-31T10:08:52;12.40;96.50
10133;DHT22;5106;50.926;7.080;2023-10-31T10:11:18;12.40;96.50
10133;DHT22;5106;50.926;7.080;2023-10-31T10:13:44;12.50;96.50
10133;DHT22;5106;50.926;7.080;2023-10-31T10:16:10;12.50;96.50
10133;DHT22;5106;50.926;7.080;2023-10-31T10:18:37;12.50;96.50
10133;DHT22;5106;50.926;7.080;2023-10-31T10:21:07;12.50;96.50
10133;DHT22;5106;50.926;7.080;2023-10-31T10:23:33;12.60;96.50
10133;DHT22;5106;50.926;7.080;2023-10-31T10:26:02;12.70;96.50
10133;DHT22;5106;50.926;7.080;2023-10-31T10:28:28;12.80;96.50
10133;DHT22;5106;50.926;7.080;2023-10-31T10:30:58;12.80;96.50
10133;DHT22;5106;50.926;7.080;2023-10-31T10:33:24;12.90;96.50
10133;DHT22;5106;50.926;7.080;2023-10-31T10:35:49;12.90;96.50
10133;DHT22;5106;50.926;7.080;2023-10-31T10:38:17;12.90;96.50
10133;DHT22;5106;50.926;7.080;2023-10-31T10:40:44;12.90;96.50
10133;DHT22;5106;50.926;7.080;2023-10-31T10:43:21;12.90;96.50
10133;DHT22;5106;50.926;7.080;2023-10-31T10:45:53;12.90;96.50
10133;DHT22;5106;50.926;7.080;2023-10-31T10:48:21;12.90;96.50
10133;DHT22;5106;50.926;7.080;2023-10-31T10:51:03;12.90;96.50
10133;DHT22;5106;50.926;7.080;2023-10-31T10:53:44;12.90;96.50
10133;DHT22;5106;50.926;7.080;2023-10-31T10:56:18;12.90;96.50
10133;DHT22;5106;50.926;7.080;2023-10-31T10:58:51;13.00;96.50
10133;DHT22;5106;50.926;7.080;2023-10-31T11:01:20;13.00;96.10
10133;DHT22;5106;50.926;7.080;2023-10-31T11:03:46;13.00;96.00
10133;DHT22;5106;50.926;7.080;2023-10-31T11:06:13;13.10;95.50
10133;DHT22;5106;50.926;7.080;2023-10-31T11:08:39;13.10;96.00
10133;DHT22;5106;50.926;7.080;2023-10-31T11:11:05;13.20;95.20
10133;DHT22;5106;50.926;7.080;2023-10-31T11:13:32;13.20;95.80
10133;DHT22;5106;50.926;7.080;2023-10-31T11:16:02;13.20;95.60
10133;DHT22;5106;50.926;7.080;2023-10-31T11:18:29;13.30;96.00
10133;DHT22;5106;50.926;7.080;2023-10-31T11:20:55;13.30;95.80
10133;DHT22;5106;50.926;7.080;2023-10-31T11:23:21;13.40;96.00
10133;DHT22;5106;50.926;7.080;2023-10-31T11:25:49;13.40;96.20
10133;DHT22;5106;50.926;7.080;2023-10-31T11:28:16;13.40;95.40
10133;DHT22;5106;50.926;7.080;2023-10-31T11:30:43;13.50;96.00
10133;DHT22;5106;50.926;7.080;2023-10-31T11:33:13;13.50;96.20
10133;DHT22;5106;50.926;7.080;2023-10-31T11:35:39;13.50;96.30
10133;DHT22;5106;50.926;7.080;2023-10-31T11:38:09;13.50;96.30
10133;DHT22;5106;50.926;7.080;2023-10-31T11:41:00;13.50;95.30
10133;DHT22;5106;50.926;7.080;2023-10-31T11:46:03;13.50;95.60
10133;DHT22;5106;50.926;7.080;2023-10-31T11:48:46;13.60;94.90
10133;DHT22;5106;50.926;7.080;2023-10-31T11:51:13;13.60;95.40
10133;DHT22;5106;50.926;7.080;2023-10-31T11:53:39;13.60;95.30
10133;DHT22;5106;50.926;7.080;2023-10-31T11:56:05;13.60;95.70
10133;DHT22;5106;50.926;7.080;2023-10-31T11:58:31;13.60;94.90
10133;DHT22;5106;50.926;7.080;2023-10-31T12:01:04;13.70;95.30
10133;DHT22;5106;50.926;7.080;2023-10-31T12:03:41;13.70;96.40
10133;DHT22;5106;50.926;7.080;2023-10-31T12:06:08;13.70;95.80
10133;DHT22;5106;50.926;7.080;2023-10-31T12:08:37;13.80;95.80
10133;DHT22;5106;50.926;7.080;2023-10-31T12:11:08;13.80;96.50
10133;DHT22;5106;50.926;7.080;2023-10-31T12:13:36;13.80;96.00
10133;DHT22;5106;50.926;7.080;2023-10-31T12:16:02;13.80;95.80
10133;DHT22;5106;50.926;7.080;2023-10-31T12:18:28;13.90;96.50
10133;DHT22;5106;50.926;7.080;2023-10-31T12:20:54;13.90;95.70
10133;DHT22;5106;50.926;7.080;2023-10-31T12:23:20;14.00;96.30
10133;DHT22;5106;50.926;7.080;2023-10-31T12:25:50;14.00;95.10
10133;DHT22;5106;50.926;7.080;2023-10-31T12:28:23;14.00;95.10
10133;DHT22;5106;50.926;7.080;2023-10-31T12:30:53;14.10;95.00
10133;DHT22;5106;50.926;7.080;2023-10-31T12:33:26;14.10;95.30
10133;DHT22;5106;50.926;7.080;2023-10-31T12:35:56;14.10;95.40
10133;DHT22;5106;50.926;7.080;2023-10-31T12:38:22;14.10;95.00
10133;DHT22;5106;50.926;7.080;2023-10-31T12:40:48;14.10;95.00
10133;DHT22;5106;50.926;7.080;2023-10-31T12:43:16;14.10;94.60
10133;DHT22;5106;50.926;7.080;2023-10-31T12:45:42;14.00;94.60
10133;DHT22;5106;50.926;7.080;2023-10-31T12:48:09;14.00;95.50
10133;DHT22;5106;50.926;7.080;2023-10-31T12:50:36;14.00;94.90
10133;DHT22;5106;50.926;7.080;2023-10-31T12:53:03;14.10;95.50
10133;DHT22;5106;50.926;7.080;2023-10-31T12:55:30;14.20;94.90
10133;DHT22;5106;50.926;7.080;2023-10-31T12:57:57;14.20;95.30
10133;DHT22;5106;50.926;7.080;2023-10-31T13:00:34;14.30;95.00
10133;DHT22;5106;50.926;7.080;2023-10-31T13:03:04;14.40;95.20
10133;DHT22;5106;50.926;7.080;2023-10-31T13:05:31;14.50;94.80
10133;DHT22;5106;50.926;7.080;2023-10-31T13:07:57;14.50;94.10
10133;DHT22;5106;50.926;7.080;2023-10-31T13:10:26;14.60;94.10
10133;DHT22;5106;50.926;7.080;2023-10-31T13:12:52;14.60;94.10
10133;DHT22;5106;50.926;7.080;2023-10-31T13:15:20;14.50;94.20
10133;DHT22;5106;50.926;7.080;2023-10-31T13:17:46;14.40;94.40
10133;DHT22;5106;50.926;7.080;2023-10-31T13:20:13;14.30;94.10
10133;DHT22;5106;50.926;7.080;2023-10-31T13:22:40;14.20;94.90
10133;DHT22;5106;50.926;7.080;2023-10-31T13:25:08;14.10;95.60
10133;DHT22;5106;50.926;7.080;2023-10-31T13:27:36;14.10;95.20
10133;DHT22;5106;50.926;7.080;2023-10-31T13:30:03;14.10;94.30
10133;DHT22;5106;50.926;7.080;2023-10-31T13:32:29;14.10;94.10
10133;DHT22;5106;50.926;7.080;2023-10-31T13:35:14;14.10;94.40
10133;DHT22;5106;50.926;7.080;2023-10-31T13:37:40;14.10;95.30
10133;DHT22;5106;50.926;7.080;2023-10-31T13:40:06;14.10;94.30
10133;DHT22;5106;50.926;7.080;2023-10-31T13:42:36;14.10;93.90
10133;DHT22;5106;50.926;7.080;2023-10-31T13:45:01;14.10;94.40
10133;DHT22;5106;50.926;7.080;2023-10-31T13:47:27;14.10;93.80
10133;DHT22;5106;50.926;7.080;2023-10-31T13:49:55;14.20;93.70
10133;DHT22;5106;50.926;7.080;2023-10-31T13:52:20;14.20;94.20
10133;DHT22;5106;50.926;7.080;2023-10-31T13:54:56;14.20;93.60
10133;DHT22;5106;50.926;7.080;2023-10-31T13:57:22;14.30;94.60
10133;DHT22;5106;50.926;7.080;2023-10-31T13:59:49;14.30;93.90
10133;DHT22;5106;50.926;7.080;2023-10-31T14:02:15;14.20;93.70
10133;DHT22;5106;50.926;7.080;2023-10-31T14:04:41;14.20;93.60
10133;DHT22;5106;50.926;7.080;2023-10-31T14:07:07;14.20;93.50
10133;DHT22;5106;50.926;7.080;2023-10-31T14:09:33;14.30;93.70
10133;DHT22;5106;50.926;7.080;2023-10-31T14:11:58;14.20;93.30
10133;DHT22;5106;50.926;7.080;2023-10-31T14:14:24;14.20;93.70
10133;DHT22;5106;50.926;7.080;2023-10-31T14:16:50;14.20;93.40
10133;DHT22;5106;50.926;7.080;2023-10-31T14:19:15;14.20;93.40
10133;DHT22;5106;50.926;7.080;2023-10-31T14:21:42;14.10;94.20
10133;DHT22;5106;50.926;7.080;2023-10-31T14:24:08;14.10;94.10
10133;DHT22;5106;50.926;7.080;2023-10-31T14:26:34;14.00;94.20
10133;DHT22;5106;50.926;7.080;2023-10-31T14:29:00;14.00;93.80
10133;DHT22;5106;50.926;7.080;2023-10-31T14:31:26;14.00;94.40
10133;DHT22;5106;50.926;7.080;2023-10-31T14:33:51;14.00;95.50
10133;DHT22;5106;50.926;7.080;2023-10-31T14:36:17;13.90;95.50
10133;DHT22;5106;50.926;7.080;2023-10-31T14:38:42;13.90;95.80
10133;DHT22;5106;50.926;7.080;2023-10-31T14:41:09;13.90;95.70
10133;DHT22;5106;50.926;7.080;2023-10-31T14:43:34;13.90;95.60
10133;DHT22;5106;50.926;7.080;2023-10-31T14:46:01;14.00;95.90
10133;DHT22;5106;50.926;7.080;2023-10-31T14:48:27;14.10;95.40
10133;DHT22;5106;50.926;7.080;2023-10-31T14:50:52;14.20;94.90
10133;DHT22;5106;50.926;7.080;2023-10-31T14:53:18;14.20;94.70
10133;DHT22;5106;50.926;7.080;2023-10-31T14:55:47;14.20;95.40
10133;DHT22;5106;50.926;7.080;2023-10-31T14:58:13;14.20;95.60
10133;DHT22;5106;50.926;7.080;2023-10-31T15:00:40;14.20;94.70
10133;DHT22;5106;50.926;7.080;2023-10-31T15:03:06;14.10;95.20
10133;DHT22;5106;50.926;7.080;2023-10-31T15:05:31;14.20;95.80
10133;DHT22;5106;50.926;7.080;2023-10-31T15:07:57;14.20;95.60
10133;DHT22;5106;50.926;7.080;2023-10-31T15:10:24;14.10;95.90
10133;DHT22;5106;50.926;7.080;2023-10-31T15:12:51;14.10;94.80
10133;DHT22;5106;50.926;7.080;2023-10-31T15:15:17;14.10;93.80
10133;DHT22;5106;50.926;7.080;2023-10-31T15:17:42;14.10;94.90
10133;DHT22;5106;50.926;7.080;2023-10-31T15:20:09;14.00;94.60
10133;DHT22;5106;50.926;7.080;2023-10-31T15:22:41;14.00;94.60
10133;DHT22;5106;50.926;7.080;2023-10-31T15:25:10;14.00;95.40
10133;DHT22;5106;50.926;7.080;2023-10-31T15:27:36;13.90;95.40
10133;DHT22;5106;50.926;7.080;2023-10-31T15:30:02;13.80;95.60
10133;DHT22;5106;50.926;7.080;2023-10-31T15:32:28;13.80;95.90
10133;DHT22;5106;50.926;7.080;2023-10-31T15:34:55;13.70;96.00
10133;DHT22;5106;50.926;7.080;2023-10-31T15:37:21;13.70;95.40
10133;DHT22;5106;50.926;7.080;2023-10-31T15:39:46;13.70;96.10
10133;DHT22;5106;50.926;7.080;2023-10-31T15:42:16;13.60;96.10
10133;DHT22;5106;50.926;7.080;2023-10-31T15:44:42;13.60;96.50
10133;DHT22;5106;50.926;7.080;2023-10-31T15:47:08;13.60;96.50